• Join FlightAware (Why Join?)
  • Login
  • US Flag 
11:47PM EDT


 

Airport Tracker/Info


-or-


 

Live Flight TrackerFlight Track Log ✈ TAM3750 ✈ 19-Jul-2013 ✈ SBGR / GRU - SBEG / MAO

Flight Track Log - Related Links

Times and Time Zones

All times are in EDT time to prevent confusion due to time zone crossing. See the TAM3750 flight status page for this flight to view local times or setup timezone preferences in your user account.

Time Position Orientation Groundspeed Altitude Reporting Facility
EDT Latitude Longitude Course Direction KTS MPH feet Rate Location/Type
07:46PM -23.4310 -46.4840 163° South 6 7  Level FlightAware
07:49PM -23.4320 -46.4840 180° South 6 7 300 Level FlightAware
07:52PM -23.2207 -46.6436 325° Northwest  Level Estimated
07:52PM -23.4330 -46.4840 325° Northwest 4 5  Level FlightAware
07:53PM -23.4340 -46.4830 137° Southeast 10 12 900 Level FlightAware
07:55PM -23.4340 -46.4810 90° East 36 41 1,080 Level FlightAware
07:55PM -23.4300 -46.4670 73° East 160 184 3,360 Level FlightAware
07:56PM -23.4240 -46.4450 73° East 177 204 3,100 3,600 Climbing FlightAware
07:56PM -23.4340 -46.4200 114° Southeast 201 231 3,700 1,080 Climbing FlightAware
07:56PM -23.4450 -46.4170 166° South 208 239 4,000 1,860 Climbing FlightAware
07:57PM -23.4720 -46.4400 218° Southwest 203 234 5,100 1,740 Climbing FlightAware
07:57PM -23.4820 -46.4540 232° Southwest 214 246 5,400 1,080 Climbing FlightAware
07:58PM -23.5000 -46.4800 233° Southwest 240 276 5,900 1,080 Climbing FlightAware
07:58PM -23.5160 -46.5010 230° Southwest 259 298 6,300 1,380 Climbing FlightAware
07:59PM -23.5360 -46.5270 230° Southwest 265 305 7,100 1,980 Climbing FlightAware
07:59PM -23.5520 -46.5500 233° Southwest 257 296 8,300 2,520 Climbing FlightAware
07:59PM -23.5690 -46.5730 231° Southwest 262 302 9,000 2,520 Climbing FlightAware
08:00PM -23.5890 -46.6020 233° Southwest 266 306 10,000 2,100 Climbing FlightAware
08:00PM -23.6210 -46.6510 235° Southwest 275 316 11,300 1,680 Climbing FlightAware
08:01PM -23.6150 -46.7050 277° West 291 335 12,300 1,140 Climbing FlightAware
08:02PM -23.6050 -46.7710 279° West 326 375 12,900 1,620 Climbing FlightAware
08:02PM -23.5880 -46.8300 287° West 324 373 14,500 2,340 Climbing FlightAware
08:03PM -23.5680 -46.8820 293° West 320 368 15,800 1,500 Climbing FlightAware
08:04PM -23.5580 -46.9520 279° West 334 384 16,600 840 Climbing FlightAware
08:04PM -23.5490 -47.0330 277° West 363 418 17,100 1,080 Climbing FlightAware
08:05PM -23.5400 -47.1070 278° West 369 425 18,100 1,500 Climbing FlightAware
08:06PM -23.5310 -47.1810 278° West 371 427 19,200 1,380 Climbing FlightAware
08:06PM -23.5230 -47.2480 277° West 377 434 20,000 1,260 Climbing FlightAware
08:07PM -23.5070 -47.3330 282° West 383 441 21,000 1,200 Climbing FlightAware
08:08PM -23.4730 -47.4210 293° West 399 459 21,800 1,020 Climbing FlightAware
08:09PM -23.4290 -47.4920 304° West 410 472 22,500 900 Climbing FlightAware
08:09PM -23.3820 -47.5610 307° West 417 480 23,100 960 Climbing FlightAware
08:10PM -23.3390 -47.6240 307° West 420 483 23,800 1,980 Climbing FlightAware
08:11PM -23.2770 -47.7150 307° West 372 428 26,800 1,980 Climbing FlightAware
08:12PM -23.2220 -47.7960 306° West 377 434 27,500 780 Climbing FlightAware
08:13PM -23.1740 -47.8670 306° West 386 444 27,900 360 Climbing FlightAware
08:13PM -23.1310 -47.9290 307° West 394 453 28,200 360 Climbing FlightAware
08:14PM -23.0720 -48.0150 307° West 408 470 28,500 480 Climbing FlightAware
08:15PM -23.0190 -48.0930 306° West 415 478 28,900 540 Climbing FlightAware
08:16PM -22.9730 -48.1590 307° West 418 481 29,300 660 Climbing FlightAware
08:16PM -22.9280 -48.2240 307° West 419 482 29,800 540 Climbing FlightAware
08:17PM -22.8850 -48.2870 307° West 418 481 30,000 120 Climbing FlightAware
08:17PM -22.8540 -48.3310 307° West 418 481 30,000  Level FlightAware
08:18PM -22.7930 -48.4200 307° West 415 478 30,000  Level FlightAware
08:19PM -22.7440 -48.4900 307° West 414 476 30,000  Level FlightAware
08:20PM -22.6930 -48.5630 307° West 414 476 30,000  Level FlightAware
08:20PM -22.6450 -48.6330 307° West 415 478 30,000  Level FlightAware
08:21PM -22.5980 -48.7000 307° West 415 478 30,000  Level FlightAware
08:22PM -22.5500 -48.7690 307° West 415 478 30,000  Level FlightAware
08:22PM -22.4990 -48.8430 307° West 415 478 30,000  Level FlightAware
08:23PM -22.4510 -48.9120 307° West 415 478 30,000  Level FlightAware
08:24PM -22.4000 -48.9840 307° West 413 475 30,000  Level FlightAware
08:24PM -22.3540 -49.0490 307° West 412 474 30,000  Level FlightAware
08:25PM -22.3060 -49.1150 308° West 413 475 30,000  Level FlightAware
08:26PM -22.2530 -49.1750 314° West 414 476 30,000  Level FlightAware
08:27PM -22.1930 -49.2420 314° West 411 473 30,000  Level FlightAware
08:27PM -22.1370 -49.3050 314° West 410 472 30,000  Level FlightAware
08:28PM -22.0910 -49.3570 314° West 410 472 30,000 -120 Level FlightAware
08:29PM -22.0340 -49.4200 314° West 413 475 29,900  Descending FlightAware
08:29PM -21.9870 -49.4730 314° West 415 478 30,000 60 Climbing FlightAware
08:30PM -21.9260 -49.5400 314° West 415 478 30,000  Level FlightAware
08:31PM -21.8670 -49.6060 314° West 416 479 30,000  Level FlightAware
08:31PM -21.8150 -49.6630 314° West 418 481 30,000  Level FlightAware
08:32PM -21.7560 -49.7290 314° West 419 482 30,000  Level FlightAware
08:33PM -21.6950 -49.7970 314° West 419 482 30,000 60 Level FlightAware
08:33PM -21.6400 -49.8580 314° West 414 476 30,100  Climbing FlightAware
08:34PM -21.5810 -49.9220 315° West 410 472 30,000 -120 Descending FlightAware
08:35PM -21.5340 -49.9740 314° West 407 468 30,000 -120 Level FlightAware
08:36PM -21.4770 -50.0370 314° West 405 466 29,900 -120 Descending FlightAware
08:36PM -21.4240 -50.0960 314° West 404 465 29,900 60 Level FlightAware
08:37PM -21.3650 -50.1620 314° West 403 464 30,000 60 Climbing FlightAware
08:38PM -21.3100 -50.2230 314° West 405 466 30,000  Level FlightAware
08:38PM -21.2630 -50.2750 314° West 408 470 30,000  Level FlightAware
08:39PM -21.2040 -50.3400 314° West 411 473 30,000 60 Level FlightAware
08:40PM -21.1500 -50.4000 314° West 411 473 30,100 60 Climbing FlightAware
08:40PM -21.1010 -50.4540 314° West 411 473 30,100 -120 Level FlightAware
08:41PM -21.0440 -50.5170 314° West 408 470 30,000 -120 Descending FlightAware
08:42PM -20.9850 -50.5820 314° West 406 467 30,000  Level FlightAware
08:42PM -20.9340 -50.6390 314° West 405 466 30,000  Level FlightAware
08:43PM -20.8910 -50.6860 314° West 404 465 30,000  Level FlightAware
08:44PM -20.8370 -50.7450 314° West 403 464 30,000  Level FlightAware
08:44PM -20.7920 -50.7920 316° Northwest 403 464 30,000  Level FlightAware
08:45PM -20.7240 -50.8650 315° West 402 463 30,000  Level FlightAware
08:46PM -20.6630 -50.9310 315° West 402 463 30,000  Level FlightAware
08:47PM -20.6100 -50.9870 315° West 404 465 30,000  Level FlightAware
08:47PM -20.5600 -51.0410 315° West 406 467 30,000  Level FlightAware
08:48PM -20.5040 -51.1000 315° West 408 470 30,000  Level FlightAware
08:49PM -20.4430 -51.1660 315° West 410 472 30,000  Level FlightAware
08:49PM -20.3890 -51.2220 316° Northwest 415 478 30,000  Level FlightAware
08:50PM -20.3180 -51.2780 324° Northwest 425 489 30,000  Level FlightAware
08:51PM -20.2350 -51.3310 329° Northwest 427 491 30,000  Level FlightAware
08:52PM -20.1170 -51.4060 329° Northwest 427 491 30,000  Level FlightAware
08:53PM -20.0650 -51.4390 329° Northwest 427 491 30,000  Level FlightAware
08:54PM -19.9960 -51.4840 328° Northwest 427 491 30,000  Level FlightAware
08:54PM -19.9450 -51.5170 329° Northwest 427 491 30,000  Level FlightAware
08:55PM -19.8750 -51.5610 329° Northwest 427 491 30,000  Level FlightAware
08:56PM -19.8240 -51.5940 329° Northwest 427 491 30,000  Level FlightAware
08:57PM -19.7530 -51.6390 329° Northwest 427 491 30,000  Level FlightAware
08:57PM -19.7010 -51.6720 329° Northwest 427 491 30,000  Level FlightAware
08:58PM -19.6150 -51.7270 329° Northwest 427 491 30,000  Level FlightAware
08:59PM -19.5630 -51.7600 329° Northwest 427 491 30,000  Level FlightAware
09:00PM -19.4940 -51.8040 329° Northwest 427 491 30,000  Level FlightAware
09:00PM -19.4340 -51.8430 328° Northwest 427 491 30,000 1,440 Level FlightAware
09:01PM -19.2180 -51.9630 332° Northwest 418 481 32,000 1,500 Climbing FlightAware
09:01PM -19.1570 -52.0010 330° Northwest 419 482 32,000  Level FlightAware
09:02PM -19.0890 -52.0350 335° Northwest 429 494 32,000  Level FlightAware
09:03PM -18.9800 -52.0590 348° North 437 503 32,000  Level FlightAware
09:04PM -18.9140 -52.0720 349° North 437 503 32,000  Level FlightAware
09:05PM -18.8330 -52.0870 350° North 437 503 32,000  Level FlightAware
09:05PM -18.7740 -52.0980 350° North 437 503 32,000  Level FlightAware
09:06PM -18.6480 -52.0900 North 420 483 32,000  Level FlightAware
09:07PM -18.5690 -52.1380 330° Northwest 420 483 32,000  Level FlightAware
09:07PM -18.5180 -52.1700 329° Northwest 420 483 32,000  Level FlightAware
09:08PM -18.4660 -52.2010 331° Northwest 420 483 32,000  Level FlightAware
09:09PM -18.3790 -52.2540 330° Northwest 420 483 32,000  Level FlightAware
09:10PM -18.3240 -52.2870 330° Northwest 420 483 32,000  Level FlightAware
09:10PM -18.2730 -52.3190 329° Northwest 420 483 32,000  Level FlightAware
09:11PM -18.2000 -52.3630 330° Northwest 420 483 32,000  Level FlightAware
09:12PM -18.1300 -52.4050 330° Northwest 420 483 32,000  Level FlightAware
09:12PM -18.0780 -52.4370 330° Northwest 420 483 32,000  Level FlightAware
09:13PM -18.0040 -52.4820 330° Northwest 420 483 32,000  Level FlightAware
09:14PM -17.9330 -52.5250 330° Northwest 420 483 32,000  Level FlightAware
09:15PM -17.8680 -52.5640 330° Northwest 420 483 32,000  Level FlightAware
09:16PM -17.8000 -52.6060 330° Northwest 420 483 32,000 -240 Level FlightAware
09:18PM -17.6242 -52.7006 333° Northwest  Level Estimated
09:19PM -17.5247 -52.7540 333° Northwest  Level Estimated
09:20PM -17.4252 -52.8074 333° Northwest  Level Estimated
09:21PM -17.3257 -52.8608 333° Northwest  Level Estimated
09:22PM -17.2261 -52.9141 333° Northwest  Level Estimated
09:23PM -17.1266 -52.9673 333° Northwest  Level Estimated
09:24PM -17.0270 -53.0204 333° Northwest  Level Estimated
09:25PM -16.9274 -53.0735 333° Northwest  Level Estimated
09:26PM -16.8278 -53.1266 333° Northwest  Level Estimated
09:27PM -16.7282 -53.1796 333° Northwest  Level Estimated
09:28PM -16.6285 -53.2325 333° Northwest  Level Estimated
09:29PM -16.5289 -53.2854 333° Northwest  Level Estimated
09:30PM -16.4292 -53.3382 333° Northwest  Level Estimated
09:31PM -16.3295 -53.3910 333° Northwest  Level Estimated
09:32PM -16.2299 -53.4437 333° Northwest  Level Estimated
09:33PM -16.1302 -53.4964 333° Northwest  Level Estimated
09:34PM -16.0305 -53.5490 333° Northwest  Level Estimated
09:35PM -15.9307 -53.6016 333° Northwest  Level Estimated
09:36PM -15.8310 -53.6541 333° Northwest  Level Estimated
09:37PM -15.7312 -53.7066 333° Northwest  Level Estimated
09:38PM -15.6315 -53.7590 333° Northwest  Level Estimated
09:39PM -15.5317 -53.8113 333° Northwest  Level Estimated
09:40PM -15.4319 -53.8637 333° Northwest  Level Estimated
09:41PM -15.3321 -53.9159 333° Northwest  Level Estimated
09:42PM -15.2323 -53.9681 333° Northwest  Level Estimated
09:43PM -15.1325 -54.0203 333° Northwest  Level Estimated
09:44PM -15.0326 -54.0724 333° Northwest  Level Estimated
09:45PM -14.9328 -54.1245 333° Northwest  Level Estimated
09:46PM -14.8329 -54.1765 333° Northwest  Level Estimated
09:47PM -14.7331 -54.2284 333° Northwest  Level Estimated
09:48PM -14.6332 -54.2803 333° Northwest  Level Estimated
09:49PM -14.5333 -54.3322 333° Northwest  Level Estimated
09:50PM -14.4334 -54.3840 333° Northwest  Level Estimated
09:51PM -14.3335 -54.4358 333° Northwest  Level Estimated
09:52PM -14.2335 -54.4875 333° Northwest  Level Estimated
09:53PM -14.1336 -54.5392 333° Northwest  Level Estimated
09:54PM -14.0337 -54.5909 333° Northwest  Level Estimated
09:55PM -13.9337 -54.6424 333° Northwest  Level Estimated
09:56PM -13.8337 -54.6940 333° Northwest  Level Estimated
09:57PM -13.7337 -54.7455 333° Northwest  Level Estimated
09:58PM -13.6337 -54.7970 333° Northwest  Level Estimated
09:59PM -13.5337 -54.8484 333° Northwest  Level Estimated
10:00PM -13.4337 -54.8997 333° Northwest  Level Estimated
10:01PM -13.3337 -54.9511 333° Northwest  Level Estimated
10:02PM -13.2337 -55.0024 333° Northwest  Level Estimated
10:03PM -13.1336 -55.0536 333° Northwest  Level Estimated
10:04PM -13.0336 -55.1048 333° Northwest  Level Estimated
10:05PM -12.9335 -55.1560 334° Northwest  Level Estimated
10:06PM -12.8334 -55.2071 334° Northwest  Level Estimated
10:07PM -12.7333 -55.2582 334° Northwest  Level Estimated
10:08PM -12.6332 -55.3092 334° Northwest  Level Estimated
10:09PM -12.5331 -55.3602 334° Northwest  Level Estimated
10:10PM -12.4330 -55.4112 334° Northwest  Level Estimated
10:11PM -12.3329 -55.4621 334° Northwest  Level Estimated
10:12PM -12.2328 -55.5130 334° Northwest  Level Estimated
10:13PM -12.1326 -55.5638 334° Northwest  Level Estimated
10:14PM -12.0325 -55.6146 334° Northwest  Level Estimated
10:15PM -11.9323 -55.6654 334° Northwest  Level Estimated
10:16PM -11.8322 -55.7161 334° Northwest  Level Estimated
10:17PM -11.7320 -55.7668 334° Northwest  Level Estimated
10:18PM -11.6318 -55.8175 334° Northwest  Level Estimated
10:19PM -11.5316 -55.8681 334° Northwest  Level Estimated
10:20PM -11.4314 -55.9187 334° Northwest  Level Estimated
10:21PM -11.3312 -55.9692 334° Northwest  Level Estimated
10:22PM -11.2310 -56.0197 334° Northwest  Level Estimated
10:23PM -11.1307 -56.0702 334° Northwest  Level Estimated
10:24PM -11.0305 -56.1207 334° Northwest  Level Estimated
10:25PM -10.9302 -56.1711 334° Northwest  Level Estimated
10:26PM -10.8300 -56.2215 334° Northwest  Level Estimated
10:27PM -10.7297 -56.2718 334° Northwest  Level Estimated
10:28PM -10.6294 -56.3221 334° Northwest  Level Estimated
10:29PM -10.5292 -56.3724 334° Northwest  Level Estimated
10:30PM -10.4289 -56.4226 334° Northwest  Level Estimated
10:31PM -10.3286 -56.4728 334° Northwest  Level Estimated
10:32PM -10.2283 -56.5230 334° Northwest  Level Estimated
10:33PM -10.1280 -56.5732 334° Northwest  Level Estimated
10:34PM -10.0276 -56.6233 334° Northwest  Level Estimated
10:35PM -9.9273 -56.6734 334° Northwest  Level Estimated
10:36PM -9.8270 -56.7234 334° Northwest  Level Estimated
10:37PM -9.7266 -56.7734 334° Northwest  Level Estimated
10:38PM -9.6263 -56.8234 334° Northwest  Level Estimated
10:39PM -9.5259 -56.8734 334° Northwest  Level Estimated
10:40PM -9.4256 -56.9233 334° Northwest  Level Estimated
10:41PM -9.3252 -56.9732 334° Northwest  Level Estimated
10:42PM -9.2248 -57.0231 334° Northwest  Level Estimated
10:43PM -9.1244 -57.0729 334° Northwest  Level Estimated
10:44PM -9.0240 -57.1228 334° Northwest  Level Estimated
10:45PM -8.9236 -57.1726 334° Northwest  Level Estimated
10:46PM -8.8232 -57.2223 334° Northwest  Level Estimated
10:47PM -8.7228 -57.2720 334° Northwest  Level Estimated
10:48PM -8.6224 -57.3218 334° Northwest  Level Estimated
10:49PM -8.5220 -57.3714 334° Northwest  Level Estimated
10:50PM -8.4216 -57.4211 334° Northwest  Level Estimated
10:51PM -8.3211 -57.4707 334° Northwest  Level Estimated
10:52PM -8.2207 -57.5203 334° Northwest  Level Estimated
10:53PM -8.1202 -57.5699 334° Northwest  Level Estimated
10:54PM -8.0198 -57.6195 334° Northwest  Level Estimated
10:55PM -7.9193 -57.6690 334° Northwest  Level Estimated
10:56PM -7.8189 -57.7185 334° Northwest  Level Estimated
10:57PM -7.7184 -57.7680 334° Northwest  Level Estimated
10:58PM -7.6179 -57.8175 334° Northwest  Level Estimated
10:59PM -7.5174 -57.8669 334° Northwest  Level Estimated
11:00PM -7.4169 -57.9163 334° Northwest  Level Estimated
11:01PM -7.3165 -57.9657 334° Northwest  Level Estimated
11:02PM -7.2160 -58.0151 334° Northwest  Level Estimated
11:03PM -7.1154 -58.0644 334° Northwest  Level Estimated
11:04PM -7.0149 -58.1138 334° Northwest  Level Estimated
11:05PM -6.9144 -58.1631 334° Northwest  Level Estimated
11:06PM -6.8139 -58.2123 334° Northwest  Level Estimated
11:07PM -6.7134 -58.2616 334° Northwest  Level Estimated
11:08PM -6.6128 -58.3108 334° Northwest  Level Estimated
11:09PM -6.5123 -58.3601 334° Northwest  Level Estimated
11:10PM -6.4118 -58.4093 334° Northwest  Level Estimated
11:11PM -6.3112 -58.4585 334° Northwest  Level Estimated
11:12PM -6.2107 -58.5076 334° Northwest  Level Estimated
11:13PM -6.1101 -58.5568 334° Northwest  Level Estimated
11:14PM -6.0096 -58.6059 334° Northwest  Level Estimated
11:15PM -5.9090 -58.6550 334° Northwest  Level Estimated
11:16PM -5.8084 -58.7041 334° Northwest  Level Estimated
11:17PM -5.7079 -58.7532 334° Northwest  Level Estimated
11:18PM -5.6073 -58.8022 334° Northwest  Level Estimated
11:19PM -5.5067 -58.8513 334° Northwest  Level Estimated
11:20PM -5.4061 -58.9003 334° Northwest  Level Estimated
11:21PM -5.3056 -58.9493 334° Northwest  Level Estimated
11:22PM -5.2050 -58.9983 334° Northwest  Level Estimated
11:23PM -5.1044 -59.0473 334° Northwest  Level Estimated
11:24PM -5.0038 -59.0962 334° Northwest  Level Estimated
11:25PM -4.9032 -59.1452 334° Northwest  Level Estimated
11:26PM -4.8026 -59.1941 334° Northwest  Level Estimated
11:27PM -4.7020 -59.2430 334° Northwest  Level Estimated
11:28PM -4.6013 -59.2919 334° Northwest  Level Estimated
11:29PM -4.5007 -59.3408 334° Northwest  Level Estimated
11:30PM -4.4001 -59.3897 334° Northwest  Level Estimated
11:30PM -3.3710 -60.0960 334° Northwest 288 331 5,800  Level FlightAware
11:30PM -3.3600 -60.0990 345° North 285 328 5,600 -1,440 Descending FlightAware
11:31PM -3.3180 -60.1090 347° North 281 323 4,800 -1,380 Descending FlightAware
11:31PM -3.2850 -60.1170 346° North 278 320 4,200 -1,380 Descending FlightAware
11:31PM -3.2660 -60.1220 345° North 276 318 3,900 -1,320 Descending FlightAware
11:32PM -3.2120 -60.1360 345° North 255 293 3,000 -1,260 Descending FlightAware
11:33PM -3.1810 -60.1430 347° North 252 290 2,400 -1,080 Descending FlightAware
11:33PM -3.1500 -60.1500 347° North 243 280 2,000 -420 Descending FlightAware
11:34PM -3.1160 -60.1590 345° North 241 277 2,000  Level FlightAware
11:34PM -3.1030 -60.1620 347° North 235 270 2,000 120 Level FlightAware
11:34PM -3.0750 -60.1690 346° North 206 237 2,100  Climbing FlightAware
11:34PM -3.0610 -60.1720 348° North 183 211 2,000 -120 Descending FlightAware
11:35PM -3.0390 -60.1570 34° Northeast 155 178 2,000 -300 Level FlightAware
11:36PM -3.0380 -60.1410 86° East 155 178 1,700 -780 Descending FlightAware
11:36PM -3.0380 -60.1240 90° East 143 165 1,400 -660 Descending FlightAware
11:37PM -3.0390 -60.0980 92° East 141 162 1,000 -540 Descending FlightAware
11:37PM -3.0390 -60.0720 90° East 139 160 700 -420 Descending FlightAware
11:39PM -3.0380 -60.0380 88° East 29 33 -480 Descending FlightAware
11:39PM -3.0370 -60.0360 63° Northeast 29 33  Level FlightAware
11:42PM -3.0386 -60.0497 263° West  Level Estimated